Accueil
METAR-TAF:

METAR-TAF

Aéroports :

Aéroport d'Annecy Haute-Savoie Mont-Blanc

Annecy, France

latitude: 45-55-45N, longitude: 006-05-56E, altitude: 463 m

Observation

Le bulletin a été fait il y a 17 minutes, à 23:30 UTC
Vent 4 kt de nord/nord-ouest
Température 0°C
Humidité 100%
Pression 1022 hPa
Visibilité: 0600 m
bancs de brouillard

METAR: LFLP 242330Z AUTO 34004KT 1200 0600 R04/2600D BCFG VV/// 00/M00 Q1022

Heure: 00:47 (23:47 UTC)

Prévision

Le bulletin a été fait il y a 4 heures et 51 minutes, à 18:56 UTC
Prévision valable du 24 à 18 UTC au 25 à 15 UTC
Vent 3 kt de direction variable
Visibilité 10 km ou plus
pas de nuages en-dessous de 1500 mètres et pas de cumulonimbus.
Probabilité 40% :
Temporairement
du 24 à 18 UTC au 25 à 08 UTC
Visibilité: 1500 m
Brouillard mince, brume

TAF: LFLP 241856Z 2418/2515 VRB03KT CAVOK PROB40 TEMPO 2418/2508 1500 MIFG BR

Observations et prévisions météorologiques de plus de 4000 aéroports (messages METAR et TAF).

Les stations disponibles sont représentées par des disques jaunes et rouges sur la carte.

Passer la souris dessus pour voir le nom de la station.

Cliquer dessus pour voir les observations et prévisions météorologiques.

Pour changer de carte: cliquez sur les boutons verts avec une croix noire pour zoomer, sur le bouton vert avec un tiret pour effectuer un zoom arrière, ou sur les flèches vertes pour les cartes adjacentes.


METAR-TAF: